Time;durP1;ratioP1;P1;durP2;ratioP2;P2;SDS_P1;SDS_P2;PMS_P1;PMS_P2;Temp;Humidity;BMP_temperature;BMP_pressure;BME280_temperature;BME280_humidity;BME280_pressure;Samples;Min_cycle;Max_cycle;Signal;HPM_P1;HPM_P2
2021/11/29 00:00:39;;;;;;;4.03;2.15;;;3.90;99.90;;;;;;5124388;28;20024;-73
2021/11/29 00:03:08;;;;;;;5.15;2.40;;;3.90;99.90;;;;;;5124486;28;20433;-72
2021/11/29 00:05:33;;;;;;;6.18;1.90;;;3.80;99.90;;;;;;5106238;28;20114;-73
2021/11/29 00:08:01;;;;;;;4.97;2.20;;;3.80;99.90;;;;;;5124736;28;20024;-73
2021/11/29 00:10:28;;;;;;;5.35;1.88;;;3.80;99.90;;;;;;5106116;28;20476;-74
2021/11/29 00:12:54;;;;;;;4.72;1.73;;;3.80;99.90;;;;;;5123929;28;20027;-73
2021/11/29 00:15:23;;;;;;;6.28;2.10;;;3.70;99.90;;;;;;5106196;28;20051;-74
2021/11/29 00:17:50;;;;;;;3.00;1.83;;;3.70;99.90;;;;;;5124451;28;20073;-74
2021/11/29 00:20:18;;;;;;;5.38;1.85;;;3.70;99.90;;;;;;5124991;28;20047;-72
2021/11/29 00:22:44;;;;;;;4.53;2.33;;;3.80;99.90;;;;;;5124753;28;20023;-73
2021/11/29 00:25:10;;;;;;;15.10;2.85;;;3.70;99.90;;;;;;5106057;28;20070;-72
2021/11/29 00:27:38;;;;;;;5.82;2.13;;;3.80;99.90;;;;;;5124236;28;20028;-73
2021/11/29 00:30:09;;;;;;;4.57;2.05;;;3.70;99.90;;;;;;5123699;28;20052;-72
2021/11/29 00:32:34;;;;;;;3.80;2.00;;;3.80;99.90;;;;;;5106194;28;20024;-73
2021/11/29 00:35:00;;;;;;;2.90;1.75;;;3.80;99.90;;;;;;5123844;28;20081;-72
2021/11/29 00:37:26;;;;;;;4.03;2.25;;;3.80;99.90;;;;;;5105967;28;20032;-73
2021/11/29 00:39:53;;;;;;;3.95;1.58;;;3.70;99.90;;;;;;5128274;28;20038;-73
2021/11/29 00:42:19;;;;;;;4.40;1.77;;;3.80;99.90;;;;;;5109698;28;20023;-74
2021/11/29 00:44:45;;;;;;;3.30;1.55;;;3.70;99.90;;;;;;5109625;28;20476;-73
2021/11/29 00:47:10;;;;;;;7.32;2.53;;;3.70;99.90;;;;;;5109530;28;20036;-72
2021/11/29 00:49:37;;;;;;;7.63;2.25;;;3.80;99.90;;;;;;5127588;28;20034;-72
2021/11/29 00:52:03;;;;;;;3.85;2.10;;;3.80;99.90;;;;;;5127964;28;20032;-73
2021/11/29 00:54:28;;;;;;;2.97;1.52;;;3.80;99.90;;;;;;5109023;28;20073;-73
2021/11/29 00:56:55;;;;;;;5.80;2.17;;;3.70;99.90;;;;;;5109294;28;20397;-74
2021/11/29 00:59:25;;;;;;;6.00;1.55;;;3.70;99.90;;;;;;5112361;28;20111;-74
2021/11/29 01:01:51;;;;;;;5.10;1.92;;;3.70;99.90;;;;;;5107434;28;20067;-73
2021/11/29 01:04:18;;;;;;;5.43;1.90;;;3.80;99.90;;;;;;5117421;28;20482;-75
2021/11/29 01:06:45;;;;;;;2.70;1.25;;;3.80;99.90;;;;;;5127996;28;20024;-73
2021/11/29 01:09:11;;;;;;;2.85;1.45;;;3.70;99.90;;;;;;5127272;28;20025;-73
2021/11/29 01:11:37;;;;;;;5.05;1.73;;;3.80;99.90;;;;;;5127389;28;20045;-73
2021/11/29 01:14:03;;;;;;;2.80;1.77;;;3.70;99.90;;;;;;5127083;28;20031;-73
2021/11/29 01:16:29;;;;;;;3.97;2.03;;;3.70;99.90;;;;;;5127104;28;20024;-73
2021/11/29 01:18:54;;;;;;;4.22;2.30;;;3.70;99.90;;;;;;5127341;28;20026;-73
2021/11/29 01:21:20;;;;;;;4.30;2.45;;;3.70;99.90;;;;;;5109023;28;20331;-74
2021/11/29 01:23:47;;;;;;;4.18;1.85;;;3.70;99.90;;;;;;5127450;28;20543;-74
2021/11/29 01:26:13;;;;;;;7.72;2.10;;;3.70;99.90;;;;;;5126635;28;20031;-75
2021/11/29 01:28:40;;;;;;;5.93;2.28;;;3.70;99.90;;;;;;5126938;28;20027;-73
2021/11/29 01:31:06;;;;;;;5.60;2.28;;;3.70;99.90;;;;;;5125511;28;20043;-73
2021/11/29 01:33:32;;;;;;;7.57;2.72;;;3.70;99.90;;;;;;5126992;28;20065;-73
2021/11/29 01:35:57;;;;;;;4.60;1.85;;;3.70;99.90;;;;;;5127038;28;20035;-74
2021/11/29 01:38:23;;;;;;;7.32;2.78;;;3.70;99.90;;;;;;5114969;28;20024;-74
2021/11/29 01:40:50;;;;;;;5.97;2.83;;;3.70;99.90;;;;;;5088232;28;20052;-75
2021/11/29 01:43:19;;;;;;;7.53;2.88;;;3.70;99.90;;;;;;5106745;28;20024;-74
2021/11/29 01:45:50;;;;;;;7.55;3.75;;;3.70;99.90;;;;;;5088500;28;20499;-73
2021/11/29 01:48:18;;;;;;;9.63;2.30;;;3.70;99.90;;;;;;5106402;28;20455;-75
2021/11/29 01:50:48;;;;;;;8.27;3.28;;;3.70;99.90;;;;;;5106385;28;20042;-73
2021/11/29 01:53:15;;;;;;;9.73;4.22;;;3.70;99.90;;;;;;5106052;28;20416;-73
2021/11/29 01:55:43;;;;;;;7.75;2.75;;;3.70;99.90;;;;;;5106006;28;20502;-73
2021/11/29 01:58:12;;;;;;;8.50;3.67;;;3.70;99.90;;;;;;5087815;28;20727;-74
2021/11/29 02:00:45;;;;;;;7.07;3.38;;;3.70;99.90;;;;;;5106319;28;20604;-73
2021/11/29 02:03:11;;;;;;;12.48;4.35;;;3.70;99.90;;;;;;5087849;28;20036;-74
2021/11/29 02:05:38;;;;;;;9.93;4.22;;;3.70;99.90;;;;;;5105654;28;20031;-74
2021/11/29 02:08:04;;;;;;;9.40;4.00;;;3.70;99.90;;;;;;5087436;28;20028;-73
2021/11/29 02:10:31;;;;;;;17.42;4.07;;;3.70;99.90;;;;;;5105468;28;20127;-74
2021/11/29 02:12:56;;;;;;;13.77;4.63;;;3.70;99.90;;;;;;5087099;28;20377;-74
2021/11/29 02:15:22;;;;;;;6.63;2.70;;;3.70;99.90;;;;;;5106032;28;20030;-74
2021/11/29 02:17:48;;;;;;;13.45;4.80;;;3.60;99.90;;;;;;5105776;28;20047;-76
2021/11/29 02:20:17;;;;;;;13.88;5.28;;;3.60;99.90;;;;;;5087415;28;20484;-73
2021/11/29 02:22:44;;;;;;;9.93;4.50;;;3.60;99.90;;;;;;5105573;28;20016;-73
2021/11/29 02:25:15;;;;;;;14.25;4.22;;;3.60;99.90;;;;;;5087331;28;20459;-72
2021/11/29 02:27:43;;;;;;;12.10;4.63;;;3.60;99.90;;;;;;5105232;28;20032;-74
2021/11/29 02:30:10;;;;;;;13.43;4.57;;;3.60;99.90;;;;;;5105472;28;20063;-73
2021/11/29 02:32:36;;;;;;;15.38;5.03;;;3.50;99.90;;;;;;5105586;28;20031;-72
2021/11/29 02:35:02;;;;;;;15.63;5.05;;;3.50;99.90;;;;;;5105676;28;20031;-72
2021/11/29 02:37:28;;;;;;;11.25;4.10;;;3.60;99.90;;;;;;5087307;28;20028;-73
2021/11/29 02:39:57;;;;;;;11.85;4.53;;;3.60;99.90;;;;;;5105272;28;20038;-75
2021/11/29 02:42:24;;;;;;;11.20;5.10;;;3.60;99.90;;;;;;5086831;28;20030;-74
2021/11/29 02:44:50;;;;;;;17.08;5.38;;;3.60;99.90;;;;;;5105368;28;20058;-74
2021/11/29 02:47:15;;;;;;;21.33;6.82;;;3.70;99.90;;;;;;5105230;28;20028;-74
2021/11/29 02:49:41;;;;;;;15.40;6.45;;;3.70;99.90;;;;;;5104923;28;20040;-71
2021/11/29 02:52:10;;;;;;;15.90;6.57;;;3.70;99.90;;;;;;5105423;28;20055;-73
2021/11/29 02:54:39;;;;;;;19.02;5.50;;;3.60;99.90;;;;;;5086343;28;20472;-74
2021/11/29 02:57:07;;;;;;;17.38;6.78;;;3.60;99.90;;;;;;5105075;28;20020;-73
2021/11/29 02:59:35;;;;;;;16.77;6.35;;;3.60;99.90;;;;;;5105076;28;20035;-73
2021/11/29 03:02:11;;;;;;;20.05;7.13;;;3.60;99.90;;;;;;5104349;28;20054;-74
2021/11/29 03:04:40;;;;;;;21.95;7.18;;;3.60;99.90;;;;;;5104483;28;20020;-74
2021/11/29 03:07:07;;;;;;;24.48;6.15;;;3.60;99.90;;;;;;5104923;28;20024;-73
2021/11/29 03:09:35;;;;;;;24.52;6.32;;;3.60;99.90;;;;;;5104577;28;20028;-74
2021/11/29 03:12:01;;;;;;;17.63;6.53;;;3.50;99.90;;;;;;5119335;28;20065;-73
2021/11/29 03:14:27;;;;;;;20.77;7.28;;;3.50;99.90;;;;;;5125194;28;20024;-75
2021/11/29 03:16:56;;;;;;;21.92;6.78;;;3.50;99.90;;;;;;5125384;28;20031;-74
2021/11/29 03:19:23;;;;;;;21.85;7.45;;;3.50;99.90;;;;;;5125027;28;20028;-74
2021/11/29 03:21:49;;;;;;;19.35;5.82;;;3.60;99.90;;;;;;5124871;28;20083;-75
2021/11/29 03:24:15;;;;;;;26.90;5.97;;;3.60;99.90;;;;;;5125271;28;20049;-74
2021/11/29 03:26:41;;;;;;;22.20;6.80;;;3.70;99.90;;;;;;5124541;28;20032;-73
2021/11/29 03:29:12;;;;;;;19.02;6.30;;;3.60;99.90;;;;;;5106598;28;20073;-73
2021/11/29 03:31:39;;;;;;;14.18;5.53;;;3.60;99.90;;;;;;5124954;28;20504;-74
2021/11/29 03:34:08;;;;;;;12.30;5.05;;;3.60;99.90;;;;;;5125093;28;20032;-73
2021/11/29 03:36:40;;;;;;;14.82;5.28;;;3.60;99.90;;;;;;5124712;28;20493;-73
2021/11/29 03:39:10;;;;;;;12.70;5.85;;;3.60;99.90;;;;;;5124809;28;20027;-75
2021/11/29 03:41:37;;;;;;;18.23;5.85;;;3.60;99.90;;;;;;5106665;28;20106;-74
2021/11/29 03:44:03;;;;;;;16.20;6.80;;;3.60;99.90;;;;;;5125082;28;20069;-74
2021/11/29 03:46:29;;;;;;;14.95;6.13;;;3.60;99.90;;;;;;5124723;28;20031;-74
2021/11/29 03:48:55;;;;;;;16.67;6.07;;;3.60;99.90;;;;;;5124385;28;20039;-75
2021/11/29 03:51:22;;;;;;;16.35;6.50;;;3.60;99.90;;;;;;5124933;28;20031;-74
2021/11/29 03:53:48;;;;;;;19.10;6.43;;;3.60;99.90;;;;;;5125148;28;20053;-75
2021/11/29 03:56:33;;;;;;;27.08;7.18;;;3.60;99.90;;;;;;5124762;28;20028;-75
2021/11/29 03:58:58;;;;;;;16.40;6.72;;;3.60;99.90;;;;;;5106504;28;20027;-73
2021/11/29 04:01:25;;;;;;;18.90;6.57;;;3.60;99.90;;;;;;5106270;28;20032;-74
2021/11/29 04:03:50;;;;;;;18.17;6.72;;;3.70;99.90;;;;;;5106055;28;20036;-75
2021/11/29 04:06:16;;;;;;;20.13;6.40;;;3.70;99.90;;;;;;5107103;28;20030;-73
2021/11/29 04:08:42;;;;;;;20.65;8.23;;;3.80;99.90;;;;;;5106290;28;20054;-74
2021/11/29 04:11:25;;;;;;;26.13;8.57;;;3.70;99.90;;;;;;5124263;28;20046;-74
2021/11/29 04:13:51;;;;;;;22.85;8.10;;;3.70;99.90;;;;;;5109576;28;20047;-75
2021/11/29 04:16:17;;;;;;;19.15;7.40;;;3.60;99.90;;;;;;5128875;28;20035;-74
2021/11/29 04:18:43;;;;;;;26.88;8.05;;;3.70;99.90;;;;;;5109881;28;20082;-73
2021/11/29 04:21:12;;;;;;;18.30;6.68;;;3.60;99.90;;;;;;5128393;28;20551;-74
2021/11/29 04:23:37;;;;;;;14.57;6.35;;;3.60;99.90;;;;;;5128272;28;20045;-73
2021/11/29 04:26:04;;;;;;;24.25;7.32;;;3.60;99.90;;;;;;5128018;28;20024;-73
2021/11/29 04:28:30;;;;;;;31.95;8.73;;;3.60;99.90;;;;;;5109655;28;20042;-73
2021/11/29 04:30:57;;;;;;;21.08;7.22;;;3.60;99.90;;;;;;5109391;28;20047;-74
2021/11/29 04:33:23;;;;;;;20.45;6.47;;;3.60;99.90;;;;;;5128191;28;20047;-73
2021/11/29 04:35:50;;;;;;;29.70;7.68;;;3.50;99.90;;;;;;5110207;28;20034;-74
2021/11/29 04:38:16;;;;;;;20.67;8.05;;;3.40;99.90;;;;;;5128369;28;20031;-72
2021/11/29 04:40:41;;;;;;;22.52;7.32;;;3.40;99.90;;;;;;5128162;28;20063;-73
2021/11/29 04:43:07;;;;;;;22.48;7.00;;;3.30;99.90;;;;;;5128061;28;20028;-73
2021/11/29 04:45:34;;;;;;;14.70;6.30;;;3.30;99.90;;;;;;5127595;28;20028;-73
2021/11/29 04:47:59;;;;;;;14.43;6.28;;;3.20;99.90;;;;;;5109151;28;20023;-72
2021/11/29 04:50:26;;;;;;;24.80;6.95;;;3.20;99.90;;;;;;5109675;28;20049;-72
2021/11/29 04:52:52;;;;;;;22.05;5.95;;;3.30;99.90;;;;;;5109752;28;20027;-73
2021/11/29 04:55:20;;;;;;;15.75;6.07;;;3.30;99.90;;;;;;5109910;28;20042;-74
2021/11/29 04:57:45;;;;;;;21.88;6.25;;;3.20;99.90;;;;;;5127748;28;20084;-73
2021/11/29 05:00:14;;;;;;;20.52;5.78;;;3.20;99.90;;;;;;5127703;28;20069;-72
2021/11/29 05:02:40;;;;;;;18.40;6.65;;;3.20;99.90;;;;;;5127778;28;20035;-72
2021/11/29 05:05:06;;;;;;;21.27;6.88;;;3.10;99.90;;;;;;5127415;28;20042;-73
2021/11/29 05:07:32;;;;;;;18.17;6.28;;;3.10;99.90;;;;;;5109010;28;20039;-73
2021/11/29 05:09:58;;;;;;;17.65;6.25;;;3.10;99.90;;;;;;5108855;28;20027;-74
2021/11/29 05:12:26;;;;;;;18.88;6.20;;;3.10;99.90;;;;;;5126804;28;20024;-74
2021/11/29 05:14:53;;;;;;;19.15;6.60;;;3.10;99.90;;;;;;5109127;28;20130;-74
2021/11/29 05:17:18;;;;;;;20.80;5.43;;;3.00;99.90;;;;;;5127430;28;20026;-75
2021/11/29 05:19:45;;;;;;;16.67;5.68;;;3.00;99.90;;;;;;5127244;28;20502;-74
2021/11/29 05:22:11;;;;;;;13.85;5.35;;;3.00;99.90;;;;;;5127516;28;20387;-74
2021/11/29 05:24:37;;;;;;;18.92;6.32;;;2.90;99.90;;;;;;5126982;28;20028;-74
2021/11/29 05:27:04;;;;;;;13.60;5.22;;;2.90;99.90;;;;;;5127112;28;20028;-74
2021/11/29 05:29:31;;;;;;;20.42;5.60;;;2.90;99.90;;;;;;5108205;28;20108;-75
2021/11/29 05:31:56;;;;;;;11.57;5.18;;;2.90;99.90;;;;;;5126671;28;20071;-74
2021/11/29 05:34:22;;;;;;;19.20;6.32;;;2.90;99.90;;;;;;5109113;28;20024;-73
2021/11/29 05:36:48;;;;;;;16.08;5.22;;;2.90;99.90;;;;;;5127263;28;20087;-74
2021/11/29 05:39:15;;;;;;;20.13;5.43;;;2.90;99.90;;;;;;5126784;28;20044;-75
2021/11/29 05:41:42;;;;;;;19.08;5.53;;;2.90;99.90;;;;;;5126975;28;20024;-74
2021/11/29 05:44:08;;;;;;;15.20;5.97;;;2.90;99.90;;;;;;5126881;28;20045;-73
2021/11/29 05:46:33;;;;;;;16.75;5.28;;;2.80;99.90;;;;;;5108592;28;20023;-73
2021/11/29 05:49:01;;;;;;;12.13;5.30;;;2.80;99.90;;;;;;5108350;28;20095;-74
2021/11/29 05:51:28;;;;;;;15.48;4.93;;;2.80;99.90;;;;;;5126304;28;20039;-74
2021/11/29 05:53:55;;;;;;;15.13;6.93;;;2.80;99.90;;;;;;5126414;28;20028;-74
2021/11/29 05:56:22;;;;;;;13.98;5.15;;;2.80;99.90;;;;;;5127030;28;20031;-75
2021/11/29 05:58:48;;;;;;;14.98;4.35;;;2.80;99.90;;;;;;5126828;28;20062;-74
2021/11/29 06:01:14;;;;;;;11.80;5.78;;;2.80;99.90;;;;;;5126722;28;20032;-76
2021/11/29 06:03:40;;;;;;;11.13;3.97;;;2.70;99.90;;;;;;5126546;28;20072;-74
2021/11/29 06:06:06;;;;;;;13.63;4.65;;;2.70;99.90;;;;;;5108020;28;20023;-73
2021/11/29 06:08:31;;;;;;;15.82;5.35;;;2.80;99.90;;;;;;5125938;28;20034;-73
2021/11/29 06:11:06;;;;;;;20.52;4.80;;;2.70;99.90;;;;;;5126223;28;20047;-75
2021/11/29 06:13:32;;;;;;;18.90;5.22;;;2.70;99.90;;;;;;5107318;28;20377;-75
2021/11/29 06:15:57;;;;;;;10.70;4.13;;;2.80;99.90;;;;;;5108176;28;20055;-74
2021/11/29 06:18:23;;;;;;;10.63;4.63;;;2.80;99.90;;;;;;5108286;28;20031;-74
2021/11/29 06:20:50;;;;;;;11.93;4.50;;;2.80;99.90;;;;;;5126578;28;20060;-75
2021/11/29 06:23:16;;;;;;;9.48;4.45;;;2.80;99.90;;;;;;5107401;28;20038;-73
2021/11/29 06:25:42;;;;;;;10.93;3.83;;;2.80;99.90;;;;;;5125758;28;20035;-73
2021/11/29 06:28:08;;;;;;;10.52;3.80;;;2.80;99.90;;;;;;5126311;28;20023;-72
2021/11/29 06:30:35;;;;;;;10.35;3.58;;;2.80;99.90;;;;;;5107424;28;20085;-73
2021/11/29 06:33:00;;;;;;;20.73;5.25;;;2.70;99.90;;;;;;5125268;28;20034;-73
2021/11/29 06:35:27;;;;;;;20.38;5.28;;;2.70;99.90;;;;;;5124520;28;20416;-74
2021/11/29 06:38:05;;;;;;;12.00;4.88;;;2.60;99.90;;;;;;5125835;28;20030;-74
2021/11/29 06:40:35;;;;;;;18.60;4.65;;;2.50;99.90;;;;;;5125755;28;20395;-74
2021/11/29 06:43:01;;;;;;;12.23;5.03;;;2.40;99.90;;;;;;5125329;28;20036;-73
2021/11/29 06:45:28;;;;;;;16.85;4.97;;;2.40;99.90;;;;;;5125740;28;20031;-74
2021/11/29 06:47:53;;;;;;;12.00;4.35;;;2.30;99.90;;;;;;5107300;28;20035;-73
2021/11/29 06:50:21;;;;;;;14.60;6.05;;;2.20;99.90;;;;;;5126004;28;20049;-74
2021/11/29 06:52:49;;;;;;;9.75;3.97;;;2.20;99.90;;;;;;5125467;28;20031;-75
2021/11/29 06:55:16;;;;;;;12.60;4.15;;;2.20;99.90;;;;;;5107283;28;20035;-74
2021/11/29 06:57:43;;;;;;;11.40;3.85;;;2.20;99.90;;;;;;5125193;28;20032;-72
2021/11/29 07:00:11;;;;;;;10.70;4.53;;;2.20;99.90;;;;;;5125132;28;20660;-73
2021/11/29 07:02:39;;;;;;;15.40;4.57;;;2.20;99.90;;;;;;5107111;28;20031;-73
2021/11/29 07:05:05;;;;;;;13.77;4.43;;;2.20;99.90;;;;;;5125396;28;20075;-72
2021/11/29 07:07:31;;;;;;;13.40;4.93;;;2.20;99.90;;;;;;5100025;28;20044;-73
2021/11/29 07:09:57;;;;;;;22.02;5.78;;;2.30;99.90;;;;;;5114835;28;20035;-73
2021/11/29 07:12:22;;;;;;;15.00;5.75;;;2.30;99.90;;;;;;5113000;28;20423;-73
2021/11/29 07:14:49;;;;;;;12.63;4.15;;;2.40;99.90;;;;;;5089430;28;20047;-74
2021/11/29 07:17:15;;;;;;;13.52;4.50;;;2.40;99.90;;;;;;5109976;28;20036;-74
2021/11/29 07:19:40;;;;;;;16.95;4.13;;;2.40;99.90;;;;;;5109355;28;20042;-74
2021/11/29 07:22:06;;;;;;;20.65;5.03;;;2.40;99.90;;;;;;5120257;28;20055;-74
2021/11/29 07:24:42;;;;;;;8.98;4.07;;;2.50;99.90;;;;;;5129762;27;20036;-75
2021/11/29 07:27:08;;;;;;;17.10;4.30;;;2.50;99.90;;;;;;5109284;28;20033;-75
2021/11/29 07:29:34;;;;;;;14.30;4.70;;;2.50;99.90;;;;;;5093426;28;20108;-72
2021/11/29 07:31:59;;;;;;;13.10;4.07;;;2.50;99.90;;;;;;5106899;28;20543;-73
2021/11/29 07:34:25;;;;;;;16.02;5.40;;;2.60;99.90;;;;;;5087384;28;20055;-74
2021/11/29 07:36:50;;;;;;;13.05;4.72;;;2.60;99.90;;;;;;5105753;28;20054;-73
2021/11/29 07:39:16;;;;;;;12.20;5.65;;;2.60;99.90;;;;;;5107442;28;20026;-72
2021/11/29 07:41:42;;;;;;;15.25;4.43;;;2.60;99.90;;;;;;5105197;28;20050;-73
2021/11/29 07:44:08;;;;;;;6.90;2.80;;;2.60;99.90;;;;;;5124487;28;20028;-72
2021/11/29 07:46:33;;;;;;;13.25;3.78;;;2.60;99.90;;;;;;5125025;28;20028;-72
2021/11/29 07:49:00;;;;;;;12.13;3.40;;;2.60;99.90;;;;;;5128949;28;20020;-73
2021/11/29 07:51:31;;;;;;;15.00;5.15;;;2.60;99.90;;;;;;5129139;28;20066;-74
2021/11/29 07:53:57;;;;;;;10.75;4.15;;;2.60;99.90;;;;;;5129224;28;20038;-74
2021/11/29 07:56:23;;;;;;;9.65;3.67;;;2.70;99.90;;;;;;5127376;28;20040;-75
2021/11/29 07:58:50;;;;;;;8.15;3.97;;;2.70;99.90;;;;;;5128874;28;20023;-74
2021/11/29 08:01:20;;;;;;;8.93;3.83;;;2.70;99.90;;;;;;5118851;28;20341;-74
2021/11/29 08:03:45;;;;;;;9.45;3.10;;;2.80;99.90;;;;;;5108212;28;20099;-73
2021/11/29 08:06:11;;;;;;;12.63;4.10;;;2.80;99.90;;;;;;5118524;28;20556;-73
2021/11/29 08:08:37;;;;;;;9.90;3.83;;;2.90;99.90;;;;;;5111586;28;20055;-72
2021/11/29 08:11:07;;;;;;;11.55;3.78;;;2.80;99.90;;;;;;5110038;28;20044;-75
2021/11/29 08:13:32;;;;;;;11.25;3.60;;;2.70;99.90;;;;;;5126400;28;20028;-74
2021/11/29 08:15:58;;;;;;;10.50;3.92;;;2.70;99.90;;;;;;5119920;28;20024;-74
2021/11/29 08:18:24;;;;;;;9.10;3.53;;;2.70;99.90;;;;;;5122102;27;20024;-74
2021/11/29 08:20:50;;;;;;;12.70;4.93;;;2.70;99.90;;;;;;5097143;28;20051;-74
2021/11/29 08:23:16;;;;;;;15.25;4.25;;;2.60;99.90;;;;;;5116251;28;20046;-74
2021/11/29 08:25:42;;;;;;;10.60;3.55;;;2.60;99.90;;;;;;5111045;27;20031;-75
2021/11/29 08:28:09;;;;;;;9.88;3.63;;;2.50;99.90;;;;;;5108091;28;20062;-72
2021/11/29 08:30:37;;;;;;;8.57;2.83;;;2.50;99.90;;;;;;5089288;28;20460;-73
2021/11/29 08:33:03;;;;;;;13.80;4.72;;;2.50;99.90;;;;;;5110493;28;20024;-72
2021/11/29 08:35:29;;;;;;;10.70;4.07;;;2.50;99.90;;;;;;5107401;28;20050;-72
2021/11/29 08:37:58;;;;;;;12.13;4.38;;;2.60;99.90;;;;;;5089112;28;20059;-74
2021/11/29 08:40:27;;;;;;;11.90;3.33;;;2.60;99.90;;;;;;5112360;28;20036;-74
2021/11/29 08:43:20;;;;;;;9.40;3.92;;;2.60;99.90;;;;;;5116521;28;20035;-73
2021/11/29 08:45:57;;;;;;;13.10;4.28;;;2.60;99.90;;;;;;5107535;28;20024;-73
2021/11/29 08:48:26;;;;;;;11.15;4.30;;;2.70;99.90;;;;;;5107316;28;20024;-73
2021/11/29 08:50:55;;;;;;;10.07;3.83;;;2.70;99.90;;;;;;5108750;28;20458;-74
2021/11/29 08:53:26;;;;;;;9.52;3.85;;;2.70;99.90;;;;;;5100002;28;20058;-74
2021/11/29 08:56:30;;;;;;;7.80;3.05;;;2.70;99.90;;;;;;5106931;28;20036;-73
2021/11/29 08:58:58;;;;;;;8.73;2.92;;;2.80;99.90;;;;;;5105877;28;20056;-74
2021/11/29 09:01:50;;;;;;;9.50;3.10;;;2.80;99.90;;;;;;5107116;28;20039;-76
2021/11/29 09:04:28;;;;;;;7.40;3.42;;;2.80;99.90;;;;;;5104184;28;20039;-75
2021/11/29 09:06:54;;;;;;;6.20;3.08;;;2.80;99.90;;;;;;5122340;27;20139;-74
2021/11/29 09:09:20;;;;;;;13.15;3.92;;;2.80;99.90;;;;;;5113262;28;20116;-73
2021/11/29 09:11:45;;;;;;;10.25;3.08;;;2.80;99.90;;;;;;5112732;28;20035;-72
2021/11/29 09:14:11;;;;;;;6.55;2.95;;;2.90;99.90;;;;;;5107204;28;20020;-73
2021/11/29 09:16:37;;;;;;;8.32;3.38;;;2.90;99.90;;;;;;5111313;28;20031;-72
2021/11/29 09:19:03;;;;;;;11.40;3.50;;;2.90;99.90;;;;;;5090294;28;20028;-73
2021/11/29 09:21:29;;;;;;;10.48;4.05;;;2.90;99.90;;;;;;5112124;28;20038;-74
2021/11/29 09:23:59;;;;;;;10.93;4.03;;;3.00;99.90;;;;;;5112083;28;20056;-73
2021/11/29 09:26:26;;;;;;;10.52;2.65;;;3.00;99.90;;;;;;5097891;28;20040;-73
2021/11/29 09:28:54;;;;;;;11.45;3.35;;;3.00;99.90;;;;;;5114538;28;20041;-74
2021/11/29 09:31:22;;;;;;;9.07;2.50;;;3.10;99.90;;;;;;5121542;28;20043;-74
2021/11/29 09:33:48;;;;;;;9.93;3.65;;;3.20;99.90;;;;;;5117369;28;20357;-74
2021/11/29 09:36:14;;;;;;;9.05;3.72;;;3.20;99.90;;;;;;5106754;28;20023;-74
2021/11/29 09:38:40;;;;;;;14.00;3.83;;;3.20;99.90;;;;;;5105690;28;20055;-74
2021/11/29 09:41:06;;;;;;;9.00;3.13;;;3.30;99.90;;;;;;5088273;28;20028;-73
2021/11/29 09:43:33;;;;;;;11.50;3.05;;;3.40;99.90;;;;;;5126302;28;20024;-74
2021/11/29 09:45:59;;;;;;;4.28;2.35;;;3.40;99.90;;;;;;5121979;28;20122;-74
2021/11/29 09:48:29;;;;;;;10.35;3.05;;;3.50;99.90;;;;;;5106141;28;20024;-75
2021/11/29 09:50:56;;;;;;;10.30;3.13;;;3.50;99.90;;;;;;5105947;28;20066;-74
2021/11/29 09:53:27;;;;;;;7.88;3.53;;;3.60;99.90;;;;;;5106773;28;20024;-74
2021/11/29 09:56:18;;;;;;;8.95;2.78;;;3.60;99.90;;;;;;5106015;28;20020;-74
2021/11/29 09:58:45;;;;;;;7.22;3.05;;;3.70;99.90;;;;;;5106293;28;20070;-74
2021/11/29 10:01:14;;;;;;;4.57;2.75;;;3.70;99.90;;;;;;5108977;28;20024;-75
2021/11/29 10:03:40;;;;;;;7.63;3.20;;;3.80;99.90;;;;;;5106036;28;20051;-73
2021/11/29 10:06:08;;;;;;;7.55;3.50;;;3.90;99.90;;;;;;5124495;28;20023;-74
2021/11/29 10:08:39;;;;;;;7.93;3.38;;;3.90;99.90;;;;;;5099078;28;20032;-75
2021/11/29 10:11:11;;;;;;;8.10;3.08;;;3.90;99.90;;;;;;5107321;28;20040;-73
2021/11/29 10:13:52;;;;;;;18.25;3.83;;;4.00;99.90;;;;;;5123052;28;20024;-74
2021/11/29 10:16:43;;;;;;;6.68;3.03;;;4.20;99.90;;;;;;5106302;28;20035;-73
2021/11/29 10:19:24;;;;;;;19.15;5.63;;;4.60;99.90;;;;;;5113878;28;20032;-73
2021/11/29 10:21:52;;;;;;;9.02;3.47;;;4.70;99.90;;;;;;5104821;28;20028;-76
2021/11/29 10:24:22;;;;;;;7.82;2.88;;;4.70;99.90;;;;;;5087754;28;20055;-73
2021/11/29 10:26:54;;;;;;;7.78;2.85;;;4.70;99.90;;;;;;5107759;28;20043;-73
2021/11/29 10:29:29;;;;;;;9.02;2.95;;;4.70;99.90;;;;;;5113206;27;20024;-74
2021/11/29 10:32:07;;;;;;;5.57;2.47;;;4.70;99.90;;;;;;5112205;27;20044;-74
2021/11/29 10:34:33;;;;;;;6.38;2.58;;;4.70;99.90;;;;;;5112135;27;20036;-74
2021/11/29 10:37:06;;;;;;;11.60;3.70;;;4.70;99.90;;;;;;5094926;28;20091;-74
2021/11/29 10:39:51;;;;;;;7.75;2.42;;;4.60;99.90;;;;;;5114714;28;20012;-75
2021/11/29 10:42:16;;;;;;;7.82;2.97;;;4.50;99.90;;;;;;5116521;27;20089;-74
2021/11/29 10:44:46;;;;;;;8.70;2.70;;;4.50;99.90;;;;;;5103372;27;20564;-74
2021/11/29 10:47:16;;;;;;;5.88;2.80;;;4.50;99.90;;;;;;5111289;28;20019;-74
2021/11/29 10:49:56;;;;;;;9.00;2.42;;;4.50;99.90;;;;;;5115344;27;20484;-75
2021/11/29 10:52:28;;;;;;;8.98;2.88;;;4.50;99.90;;;;;;5099290;28;20081;-76
2021/11/29 10:55:10;;;;;;;12.05;3.65;;;4.40;99.90;;;;;;5115493;28;20110;-74
2021/11/29 10:57:44;;;;;;;10.15;3.35;;;4.40;99.90;;;;;;5107243;28;20111;-73
2021/11/29 11:00:14;;;;;;;8.43;3.30;;;4.40;99.90;;;;;;5120963;28;20049;-73
2021/11/29 11:02:44;;;;;;;7.10;3.55;;;4.30;99.90;;;;;;5119736;28;20023;-73
2021/11/29 11:05:16;;;;;;;9.63;3.80;;;4.30;99.90;;;;;;5110708;28;20031;-74
2021/11/29 11:07:45;;;;;;;9.63;3.55;;;4.30;99.90;;;;;;5103953;28;20078;-74
2021/11/29 11:10:14;;;;;;;6.25;3.10;;;4.30;99.90;;;;;;5119921;28;20024;-73
2021/11/29 11:12:40;;;;;;;11.90;4.03;;;4.40;99.90;;;;;;5108321;28;20024;-73
2021/11/29 11:15:11;;;;;;;6.82;3.50;;;4.40;99.90;;;;;;5103828;28;20020;-74
2021/11/29 11:17:38;;;;;;;15.60;4.22;;;4.60;99.90;;;;;;5087166;28;20392;-74
2021/11/29 11:20:13;;;;;;;4.50;2.25;;;5.00;99.90;;;;;;5106378;28;20043;-74
2021/11/29 11:22:45;;;;;;;9.52;4.05;;;5.30;99.90;;;;;;5124624;28;20035;-74
2021/11/29 11:25:18;;;;;;;6.57;2.88;;;5.40;99.90;;;;;;5125010;28;20049;-74
2021/11/29 11:27:58;;;;;;;13.10;3.78;;;5.50;99.90;;;;;;5124318;28;20458;-74
2021/11/29 11:30:27;;;;;;;7.03;3.17;;;5.70;99.90;;;;;;5103172;28;20048;-74
2021/11/29 11:33:02;;;;;;;6.72;2.60;;;6.00;99.90;;;;;;5100328;28;20055;-75
2021/11/29 11:35:35;;;;;;;9.02;4.03;;;6.40;99.90;;;;;;5085244;28;20028;-74
2021/11/29 11:38:04;;;;;;;8.48;3.42;;;6.60;99.90;;;;;;5101556;28;20036;-74
2021/11/29 11:40:36;;;;;;;5.35;2.88;;;6.60;99.90;;;;;;5102488;28;20024;-74
2021/11/29 11:43:06;;;;;;;8.98;3.88;;;6.60;99.90;;;;;;5096851;28;20072;-73
2021/11/29 11:45:34;;;;;;;7.88;3.13;;;6.50;99.90;;;;;;5083790;28;20116;-74
2021/11/29 11:48:00;;;;;;;8.50;3.85;;;6.40;99.90;;;;;;5083975;28;20028;-75
2021/11/29 11:50:30;;;;;;;10.15;4.20;;;6.30;99.90;;;;;;5084260;28;20037;-75
2021/11/29 11:53:01;;;;;;;10.77;4.18;;;6.10;99.90;;;;;;5087139;28;20025;-74
2021/11/29 11:55:32;;;;;;;10.75;4.10;;;6.10;99.90;;;;;;5098149;28;20120;-74
2021/11/29 11:58:02;;;;;;;8.90;3.63;;;6.00;99.90;;;;;;5093201;28;20024;-73
2021/11/29 12:00:36;;;;;;;8.82;4.05;;;5.90;99.90;;;;;;5093534;28;20037;-75
2021/11/29 12:03:09;;;;;;;9.60;4.28;;;5.80;99.90;;;;;;5085138;28;20052;-74
2021/11/29 12:05:56;;;;;;;12.50;4.50;;;5.70;99.90;;;;;;5091657;28;20024;-74
2021/11/29 12:08:54;;;;;;;11.90;4.65;;;5.60;99.90;;;;;;5088528;28;20136;-77
2021/11/29 12:11:26;;;;;;;6.70;3.42;;;5.50;99.90;;;;;;5081960;28;20041;-73
2021/11/29 12:14:11;;;;;;;12.93;4.18;;;5.60;99.90;;;;;;5082771;28;20032;-76
2021/11/29 12:16:56;;;;;;;10.35;3.47;;;5.50;99.90;;;;;;5083191;28;20032;-73
2021/11/29 12:19:28;;;;;;;7.55;3.92;;;5.40;99.90;;;;;;5087411;28;20024;-75
2021/11/29 12:22:02;;;;;;;7.60;3.15;;;5.40;99.90;;;;;;5088726;28;20042;-73
2021/11/29 12:24:40;;;;;;;7.43;3.63;;;5.40;99.90;;;;;;5088009;28;20052;-74
2021/11/29 12:27:08;;;;;;;8.63;3.80;;;5.30;99.90;;;;;;5084053;28;20393;-74
2021/11/29 12:29:41;;;;;;;8.23;3.70;;;5.30;99.90;;;;;;5103443;28;20024;-73
2021/11/29 12:32:11;;;;;;;8.65;3.38;;;5.30;99.90;;;;;;5123445;28;20038;-73
2021/11/29 12:34:51;;;;;;;11.70;3.95;;;5.30;99.90;;;;;;5126202;28;20023;-73
2021/11/29 12:37:40;;;;;;;9.95;4.00;;;5.30;99.90;;;;;;5127232;28;20023;-76
2021/11/29 12:40:08;;;;;;;7.97;3.42;;;5.30;99.90;;;;;;5088251;28;20032;-75
2021/11/29 12:42:33;;;;;;;12.05;4.82;;;5.20;99.90;;;;;;5106126;28;20024;-75
2021/11/29 12:45:11;;;;;;;9.82;3.88;;;5.20;99.90;;;;;;5088004;28;20035;-75
2021/11/29 12:48:08;;;;;;;9.85;4.05;;;5.20;99.90;;;;;;5088117;28;20050;-76
2021/11/29 12:50:39;;;;;;;10.95;4.05;;;5.20;99.90;;;;;;5106166;28;20032;-75
2021/11/29 12:53:24;;;;;;;11.52;4.40;;;5.20;99.90;;;;;;5106883;28;20016;-75
2021/11/29 12:56:14;;;;;;;10.57;4.47;;;5.20;99.90;;;;;;5106848;28;20043;-76
2021/11/29 12:59:03;;;;;;;12.80;4.70;;;5.30;99.90;;;;;;5106418;28;20024;-77